createdAt,value
2022-08-31T00:09:14.213Z,1023.94
2022-08-31T00:19:21.043Z,1023.95
2022-08-31T00:29:27.725Z,1023.95
2022-08-31T00:39:33.876Z,1023.97
2022-08-31T00:49:40.369Z,1023.90
2022-08-31T00:59:46.473Z,1023.93
2022-08-31T01:09:55.723Z,1024.03
2022-08-31T01:20:02.636Z,1024.09
2022-08-31T01:30:08.904Z,1024.07
2022-08-31T01:40:15.920Z,1024.12
2022-08-31T01:50:22.745Z,1024.15
2022-08-31T02:00:29.151Z,1024.11
2022-08-31T02:10:35.950Z,1024.11
2022-08-31T02:20:42.230Z,1024.03
2022-08-31T02:30:48.946Z,1024.04
2022-08-31T02:40:55.647Z,1023.94
2022-08-31T02:51:01.926Z,1023.86
2022-08-31T03:01:08.253Z,1023.88
2022-08-31T03:11:14.735Z,1023.95
2022-08-31T03:21:21.064Z,1023.87
2022-08-31T03:31:27.184Z,1023.87
2022-08-31T03:41:33.315Z,1023.91
2022-08-31T03:51:39.801Z,1024.03
2022-08-31T04:01:46.149Z,1024.13
2022-08-31T04:11:52.561Z,1024.20
2022-08-31T04:21:59.464Z,1024.26
2022-08-31T04:32:05.239Z,1024.31
2022-08-31T04:42:11.270Z,1024.38
2022-08-31T04:52:17.678Z,1024.39
2022-08-31T05:02:28.340Z,1024.40
2022-08-31T05:12:35.236Z,1024.37
2022-08-31T05:22:41.051Z,1024.49
2022-08-31T05:32:47.430Z,1024.48
2022-08-31T05:42:54.069Z,1024.53
2022-08-31T05:53:00.877Z,1024.56
2022-08-31T06:03:08.181Z,1024.65
2022-08-31T06:13:15.423Z,1024.67
2022-08-31T06:23:22.867Z,1024.68
2022-08-31T06:33:30.086Z,1024.72
2022-08-31T06:43:36.348Z,1024.75
2022-08-31T06:53:43.024Z,1024.68
2022-08-31T07:03:49.666Z,1024.72
2022-08-31T07:13:56.283Z,1024.81
2022-08-31T07:24:02.666Z,1024.88
2022-08-31T07:34:08.929Z,1024.97
2022-08-31T07:44:15.557Z,1025.06
2022-08-31T07:54:22.519Z,1025.16
2022-08-31T08:04:29.051Z,1025.15
2022-08-31T08:14:36.074Z,1025.11
2022-08-31T08:24:42.699Z,1025.10
2022-08-31T08:34:49.091Z,1025.09
2022-08-31T08:44:54.898Z,1025.09
2022-08-31T08:55:01.201Z,1025.17
2022-08-31T09:05:07.491Z,1025.12
2022-08-31T09:15:13.862Z,1025.16
2022-08-31T09:25:20.632Z,1025.10
2022-08-31T09:35:27.411Z,1025.10
2022-08-31T09:45:33.384Z,1025.05
2022-08-31T09:55:40.234Z,1025.02
2022-08-31T10:05:46.222Z,1025.01
2022-08-31T10:15:52.241Z,1025.01
2022-08-31T10:25:59.187Z,1024.95
2022-08-31T10:36:05.829Z,1024.89
2022-08-31T10:46:12.290Z,1024.76
2022-08-31T10:56:18.364Z,1024.74
2022-08-31T11:06:25.223Z,1024.68
2022-08-31T11:16:31.342Z,1024.60
2022-08-31T11:26:39.404Z,1024.47
2022-08-31T11:36:46.306Z,1024.45
2022-08-31T11:46:53.685Z,1024.49
2022-08-31T11:57:00.798Z,1024.40
2022-08-31T12:07:07.575Z,1024.37
2022-08-31T12:17:14.419Z,1024.24
2022-08-31T12:27:21.362Z,1024.18
2022-08-31T12:37:27.483Z,1024.18
2022-08-31T12:47:34.465Z,1024.10
2022-08-31T12:57:41.424Z,1024.11
2022-08-31T13:07:49.409Z,1024.03
2022-08-31T13:17:55.880Z,1023.90
2022-08-31T13:28:02.746Z,1023.88
2022-08-31T13:38:09.452Z,1023.81
2022-08-31T13:48:15.753Z,1023.83
2022-08-31T13:58:21.608Z,1023.68
2022-08-31T14:08:28.087Z,1023.75
2022-08-31T14:18:35.420Z,1023.76
2022-08-31T14:28:42.304Z,1023.71
2022-08-31T14:38:48.368Z,1023.69
2022-08-31T14:48:55.139Z,1023.62
2022-08-31T14:59:01.538Z,1023.57
2022-08-31T15:09:09.003Z,1023.53
2022-08-31T15:19:15.766Z,1023.51
2022-08-31T15:29:22.145Z,1023.52
2022-08-31T15:39:29.238Z,1023.55
2022-08-31T15:49:36.186Z,1023.41
2022-08-31T15:59:42.710Z,1023.33
2022-08-31T16:09:50.059Z,1023.24
2022-08-31T16:19:56.788Z,1023.23
2022-08-31T16:30:03.779Z,1023.20
2022-08-31T16:40:11.045Z,1023.16
2022-08-31T16:50:18.145Z,1023.19
2022-08-31T17:00:27.958Z,1023.21
2022-08-31T17:10:36.923Z,1023.25
2022-08-31T17:20:44.138Z,1023.28
2022-08-31T17:30:51.636Z,1023.31
2022-08-31T17:40:59.132Z,1023.33
2022-08-31T17:51:06.531Z,1023.41
2022-08-31T18:01:13.533Z,1023.53
2022-08-31T18:11:20.156Z,1023.51
2022-08-31T18:21:26.952Z,1023.62
2022-08-31T18:31:33.248Z,1023.82
2022-08-31T18:41:40.518Z,1023.89
2022-08-31T18:51:46.623Z,1023.91
2022-08-31T19:01:53.031Z,1023.93
2022-08-31T19:11:59.771Z,1023.94
2022-08-31T19:22:06.895Z,1024.04
2022-08-31T19:32:13.864Z,1024.08
2022-08-31T19:42:21.102Z,1024.09
2022-08-31T19:52:28.166Z,1024.07
2022-08-31T20:02:35.573Z,1024.08
2022-08-31T20:12:42.938Z,1024.05
2022-08-31T20:22:50.204Z,1024.18
2022-08-31T20:32:57.175Z,1024.22
2022-08-31T20:43:03.869Z,1024.12
2022-08-31T20:53:10.272Z,1024.25
2022-08-31T21:03:17.189Z,1024.28
2022-08-31T21:13:23.536Z,1024.34
2022-08-31T21:23:30.384Z,1024.38
2022-08-31T21:33:37.022Z,1024.39
2022-08-31T21:43:43.887Z,1024.43
2022-08-31T21:53:51.190Z,1024.47
2022-08-31T22:03:58.669Z,1024.53
2022-08-31T22:14:05.527Z,1024.55
2022-08-31T22:24:12.194Z,1024.57
2022-08-31T22:34:23.689Z,1024.65
2022-08-31T22:44:30.487Z,1024.64
2022-08-31T22:54:37.094Z,1024.66
2022-08-31T23:04:44.051Z,1024.64
2022-08-31T23:14:50.723Z,1024.67
2022-08-31T23:24:57.546Z,1024.60
2022-08-31T23:35:04.110Z,1024.57
2022-08-31T23:45:10.612Z,1024.54
2022-08-31T23:55:16.675Z,1024.53
